Alida, Minnesota
Current Conditions -  °F | °C
As of 7:13 PM on Sunday 23 Nov 2014 (Local Time) from KBJI Reporting Station
Haze Haze  
Wind Chill: 21°   Ceiling: 300
Heat Index: 31°   Visibility: 5mi
Dew Point: 30°   Wind: 13mph
Humidity: 96%   Direction: 280°W
Pressure: 29.42"   Gusts: NA
Location:  47.4609°N, 95.2384°W
Report Text: KBJI 240113Z AUTO 28011KT 5SM BR OVC003 M01/M01 A2942 RMK AO2 T10071012
Loading
Personal Weather Stations






























Interactive Weather Map New forecast layout! Learn more

10-Day Weather Forecast

Advertisements
Track Severe Weather on mobile